sensor_id;sensor_type;location;lat;lon;timestamp;temperature;humidity
81842;DHT22;71284;50.918;7.092;2024-02-28T00:01:17;6.10;60.90
81842;DHT22;71284;50.918;7.092;2024-02-28T00:03:43;6.00;61.30
81842;DHT22;71284;50.918;7.092;2024-02-28T00:06:10;6.10;61.20
81842;DHT22;71284;50.918;7.092;2024-02-28T00:08:36;6.10;61.70
81842;DHT22;71284;50.918;7.092;2024-02-28T00:11:03;6.10;61.90
81842;DHT22;71284;50.918;7.092;2024-02-28T00:13:30;6.20;61.50
81842;DHT22;71284;50.918;7.092;2024-02-28T00:15:56;6.40;61.20
81842;DHT22;71284;50.918;7.092;2024-02-28T00:18:23;6.50;60.80
81842;DHT22;71284;50.918;7.092;2024-02-28T00:20:49;6.40;61.20
81842;DHT22;71284;50.918;7.092;2024-02-28T00:23:16;6.50;61.00
81842;DHT22;71284;50.918;7.092;2024-02-28T00:25:43;6.60;60.50
81842;DHT22;71284;50.918;7.092;2024-02-28T00:28:09;6.60;60.70
81842;DHT22;71284;50.918;7.092;2024-02-28T00:30:36;6.70;60.80
81842;DHT22;71284;50.918;7.092;2024-02-28T00:33:02;6.80;60.80
81842;DHT22;71284;50.918;7.092;2024-02-28T00:35:31;6.80;60.40
81842;DHT22;71284;50.918;7.092;2024-02-28T00:37:56;6.80;60.80
81842;DHT22;71284;50.918;7.092;2024-02-28T00:40:22;6.90;60.10
81842;DHT22;71284;50.918;7.092;2024-02-28T00:42:49;7.00;60.00
81842;DHT22;71284;50.918;7.092;2024-02-28T00:45:15;7.00;60.20
81842;DHT22;71284;50.918;7.092;2024-02-28T00:47:42;7.10;60.00
81842;DHT22;71284;50.918;7.092;2024-02-28T00:50:09;7.10;60.20
81842;DHT22;71284;50.918;7.092;2024-02-28T00:52:35;7.10;61.00
81842;DHT22;71284;50.918;7.092;2024-02-28T00:55:02;7.10;60.10
81842;DHT22;71284;50.918;7.092;2024-02-28T00:57:29;7.10;59.70
81842;DHT22;71284;50.918;7.092;2024-02-28T00:59:55;7.20;59.60
81842;DHT22;71284;50.918;7.092;2024-02-28T01:02:22;7.20;59.80
81842;DHT22;71284;50.918;7.092;2024-02-28T01:04:48;7.10;60.50
81842;DHT22;71284;50.918;7.092;2024-02-28T01:07:15;7.10;60.00
81842;DHT22;71284;50.918;7.092;2024-02-28T01:09:42;7.10;60.00
81842;DHT22;71284;50.918;7.092;2024-02-28T01:12:08;7.10;60.00
81842;DHT22;71284;50.918;7.092;2024-02-28T01:14:35;7.20;59.60
81842;DHT22;71284;50.918;7.092;2024-02-28T01:17:01;7.30;60.10
81842;DHT22;71284;50.918;7.092;2024-02-28T01:19:28;7.20;59.70
81842;DHT22;71284;50.918;7.092;2024-02-28T01:21:55;7.10;60.50
81842;DHT22;71284;50.918;7.092;2024-02-28T01:24:21;7.20;60.20
81842;DHT22;71284;50.918;7.092;2024-02-28T01:26:48;7.10;60.00
81842;DHT22;71284;50.918;7.092;2024-02-28T01:29:14;7.20;60.10
81842;DHT22;71284;50.918;7.092;2024-02-28T01:31:41;7.10;60.30
81842;DHT22;71284;50.918;7.092;2024-02-28T01:34:08;7.10;60.70
81842;DHT22;71284;50.918;7.092;2024-02-28T01:36:34;7.20;60.20
81842;DHT22;71284;50.918;7.092;2024-02-28T01:39:01;7.10;61.10
81842;DHT22;71284;50.918;7.092;2024-02-28T01:41:27;6.90;61.40
81842;DHT22;71284;50.918;7.092;2024-02-28T01:43:54;7.00;61.30
81842;DHT22;71284;50.918;7.092;2024-02-28T01:46:24;7.00;61.60
81842;DHT22;71284;50.918;7.092;2024-02-28T01:48:49;7.00;61.10
81842;DHT22;71284;50.918;7.092;2024-02-28T01:51:16;7.20;60.80
81842;DHT22;71284;50.918;7.092;2024-02-28T01:53:42;7.30;60.40
81842;DHT22;71284;50.918;7.092;2024-02-28T01:56:09;7.10;61.60
81842;DHT22;71284;50.918;7.092;2024-02-28T01:58:35;7.00;61.80
81842;DHT22;71284;50.918;7.092;2024-02-28T02:01:02;7.00;61.40
81842;DHT22;71284;50.918;7.092;2024-02-28T02:03:29;7.00;62.00
81842;DHT22;71284;50.918;7.092;2024-02-28T02:05:55;7.00;61.60
81842;DHT22;71284;50.918;7.092;2024-02-28T02:08:22;7.20;61.20
81842;DHT22;71284;50.918;7.092;2024-02-28T02:10:48;7.30;61.10
81842;DHT22;71284;50.918;7.092;2024-02-28T02:13:15;7.30;60.90
81842;DHT22;71284;50.918;7.092;2024-02-28T02:15:41;7.30;60.90
81842;DHT22;71284;50.918;7.092;2024-02-28T02:18:08;7.40;60.40
81842;DHT22;71284;50.918;7.092;2024-02-28T02:20:35;7.50;60.40
81842;DHT22;71284;50.918;7.092;2024-02-28T02:23:01;7.50;60.00
81842;DHT22;71284;50.918;7.092;2024-02-28T02:25:28;7.50;60.20
81842;DHT22;71284;50.918;7.092;2024-02-28T02:27:54;7.60;60.00
81842;DHT22;71284;50.918;7.092;2024-02-28T02:30:21;7.60;59.80
81842;DHT22;71284;50.918;7.092;2024-02-28T02:32:48;7.60;59.90
81842;DHT22;71284;50.918;7.092;2024-02-28T02:35:14;7.50;59.40
81842;DHT22;71284;50.918;7.092;2024-02-28T02:37:43;7.40;59.90
81842;DHT22;71284;50.918;7.092;2024-02-28T02:40:10;7.40;60.20
81842;DHT22;71284;50.918;7.092;2024-02-28T02:42:37;7.50;60.10
81842;DHT22;71284;50.918;7.092;2024-02-28T02:45:04;7.60;59.60
81842;DHT22;71284;50.918;7.092;2024-02-28T02:47:31;7.70;59.90
81842;DHT22;71284;50.918;7.092;2024-02-28T02:49:57;7.70;59.50
81842;DHT22;71284;50.918;7.092;2024-02-28T02:52:24;7.70;60.40
81842;DHT22;71284;50.918;7.092;2024-02-28T02:54:50;7.70;60.10
81842;DHT22;71284;50.918;7.092;2024-02-28T02:57:17;7.50;60.50
81842;DHT22;71284;50.918;7.092;2024-02-28T02:59:44;7.70;59.80
81842;DHT22;71284;50.918;7.092;2024-02-28T03:02:10;7.80;59.10
81842;DHT22;71284;50.918;7.092;2024-02-28T03:04:37;7.80;59.30
81842;DHT22;71284;50.918;7.092;2024-02-28T03:07:03;7.90;59.20
81842;DHT22;71284;50.918;7.092;2024-02-28T03:09:30;7.90;59.00
81842;DHT22;71284;50.918;7.092;2024-02-28T03:11:57;7.70;59.70
81842;DHT22;71284;50.918;7.092;2024-02-28T03:14:23;7.70;59.90
81842;DHT22;71284;50.918;7.092;2024-02-28T03:16:50;7.80;59.50
81842;DHT22;71284;50.918;7.092;2024-02-28T03:19:16;7.70;59.60
81842;DHT22;71284;50.918;7.092;2024-02-28T03:21:43;7.40;60.50
81842;DHT22;71284;50.918;7.092;2024-02-28T03:24:09;7.20;60.30
81842;DHT22;71284;50.918;7.092;2024-02-28T03:26:37;7.20;61.10
81842;DHT22;71284;50.918;7.092;2024-02-28T03:29:03;7.40;60.70
81842;DHT22;71284;50.918;7.092;2024-02-28T03:31:30;7.50;59.90
81842;DHT22;71284;50.918;7.092;2024-02-28T03:33:57;7.70;59.30
81842;DHT22;71284;50.918;7.092;2024-02-28T03:36:23;7.60;59.80
81842;DHT22;71284;50.918;7.092;2024-02-28T03:38:50;7.60;59.90
81842;DHT22;71284;50.918;7.092;2024-02-28T03:41:16;7.70;59.50
81842;DHT22;71284;50.918;7.092;2024-02-28T03:43:43;7.70;59.30
81842;DHT22;71284;50.918;7.092;2024-02-28T03:46:10;7.80;59.00
81842;DHT22;71284;50.918;7.092;2024-02-28T03:48:36;7.80;59.20
81842;DHT22;71284;50.918;7.092;2024-02-28T03:51:03;7.80;59.20
81842;DHT22;71284;50.918;7.092;2024-02-28T03:53:29;7.90;58.60
81842;DHT22;71284;50.918;7.092;2024-02-28T03:55:56;7.80;59.10
81842;DHT22;71284;50.918;7.092;2024-02-28T03:58:23;7.90;59.20
81842;DHT22;71284;50.918;7.092;2024-02-28T04:00:49;7.60;60.20
81842;DHT22;71284;50.918;7.092;2024-02-28T04:03:16;7.50;60.80
81842;DHT22;71284;50.918;7.092;2024-02-28T04:05:42;7.70;60.10
81842;DHT22;71284;50.918;7.092;2024-02-28T04:08:09;7.60;59.00
81842;DHT22;71284;50.918;7.092;2024-02-28T04:10:36;7.70;59.30
81842;DHT22;71284;50.918;7.092;2024-02-28T04:13:02;7.80;58.90
81842;DHT22;71284;50.918;7.092;2024-02-28T04:15:30;7.90;58.60
81842;DHT22;71284;50.918;7.092;2024-02-28T04:17:55;7.80;58.50
81842;DHT22;71284;50.918;7.092;2024-02-28T04:20:22;7.90;58.70
81842;DHT22;71284;50.918;7.092;2024-02-28T04:22:49;7.90;59.60
81842;DHT22;71284;50.918;7.092;2024-02-28T04:25:15;7.80;59.50
81842;DHT22;71284;50.918;7.092;2024-02-28T04:27:43;7.90;59.40
81842;DHT22;71284;50.918;7.092;2024-02-28T04:30:09;7.90;58.90
81842;DHT22;71284;50.918;7.092;2024-02-28T04:32:36;8.10;58.70
81842;DHT22;71284;50.918;7.092;2024-02-28T04:35:03;7.90;59.00
81842;DHT22;71284;50.918;7.092;2024-02-28T04:37:30;7.90;59.00
81842;DHT22;71284;50.918;7.092;2024-02-28T04:39:56;7.90;58.70
81842;DHT22;71284;50.918;7.092;2024-02-28T04:42:23;7.80;58.20
81842;DHT22;71284;50.918;7.092;2024-02-28T04:44:50;7.90;58.40
81842;DHT22;71284;50.918;7.092;2024-02-28T04:47:16;7.90;58.40
81842;DHT22;71284;50.918;7.092;2024-02-28T04:49:43;8.00;58.00
81842;DHT22;71284;50.918;7.092;2024-02-28T04:52:09;8.00;57.80
81842;DHT22;71284;50.918;7.092;2024-02-28T04:54:36;8.10;57.80
81842;DHT22;71284;50.918;7.092;2024-02-28T04:57:03;8.00;57.70
81842;DHT22;71284;50.918;7.092;2024-02-28T04:59:29;8.00;57.80
81842;DHT22;71284;50.918;7.092;2024-02-28T05:01:56;8.10;57.40
81842;DHT22;71284;50.918;7.092;2024-02-28T05:04:22;7.80;58.50
81842;DHT22;71284;50.918;7.092;2024-02-28T05:06:50;7.90;58.10
81842;DHT22;71284;50.918;7.092;2024-02-28T05:09:16;7.70;59.30
81842;DHT22;71284;50.918;7.092;2024-02-28T05:11:43;7.80;58.30
81842;DHT22;71284;50.918;7.092;2024-02-28T05:14:10;7.80;58.40
81842;DHT22;71284;50.918;7.092;2024-02-28T05:16:36;7.80;58.50
81842;DHT22;71284;50.918;7.092;2024-02-28T05:19:03;7.80;58.20
81842;DHT22;71284;50.918;7.092;2024-02-28T05:21:29;7.80;58.20
81842;DHT22;71284;50.918;7.092;2024-02-28T05:23:56;7.70;58.40
81842;DHT22;71284;50.918;7.092;2024-02-28T05:26:23;7.70;58.80
81842;DHT22;71284;50.918;7.092;2024-02-28T05:28:49;7.80;58.70
81842;DHT22;71284;50.918;7.092;2024-02-28T05:31:22;7.90;58.10
81842;DHT22;71284;50.918;7.092;2024-02-28T05:33:50;7.80;57.90
81842;DHT22;71284;50.918;7.092;2024-02-28T05:36:15;7.80;57.90
81842;DHT22;71284;50.918;7.092;2024-02-28T05:38:41;7.90;57.70
81842;DHT22;71284;50.918;7.092;2024-02-28T05:41:08;7.90;57.50
81842;DHT22;71284;50.918;7.092;2024-02-28T05:43:36;7.90;57.90
81842;DHT22;71284;50.918;7.092;2024-02-28T05:46:01;8.00;57.70
81842;DHT22;71284;50.918;7.092;2024-02-28T05:48:27;8.00;57.80
81842;DHT22;71284;50.918;7.092;2024-02-28T05:50:54;8.10;57.30
81842;DHT22;71284;50.918;7.092;2024-02-28T05:53:21;8.00;57.60
81842;DHT22;71284;50.918;7.092;2024-02-28T05:55:47;7.90;57.70
81842;DHT22;71284;50.918;7.092;2024-02-28T05:58:14;8.00;57.60
81842;DHT22;71284;50.918;7.092;2024-02-28T06:00:40;8.00;57.50
81842;DHT22;71284;50.918;7.092;2024-02-28T06:03:07;8.00;57.40
81842;DHT22;71284;50.918;7.092;2024-02-28T06:05:34;8.00;56.80
81842;DHT22;71284;50.918;7.092;2024-02-28T06:08:00;8.10;57.40
81842;DHT22;71284;50.918;7.092;2024-02-28T06:10:27;8.10;57.70
81842;DHT22;71284;50.918;7.092;2024-02-28T06:12:53;8.00;58.10
81842;DHT22;71284;50.918;7.092;2024-02-28T06:15:20;8.00;58.00
81842;DHT22;71284;50.918;7.092;2024-02-28T06:17:47;8.00;57.90
81842;DHT22;71284;50.918;7.092;2024-02-28T06:20:13;8.10;57.50
81842;DHT22;71284;50.918;7.092;2024-02-28T06:22:40;8.10;57.00
81842;DHT22;71284;50.918;7.092;2024-02-28T06:25:07;8.10;57.10
81842;DHT22;71284;50.918;7.092;2024-02-28T06:27:33;8.00;56.80
81842;DHT22;71284;50.918;7.092;2024-02-28T06:30:00;8.00;56.10
81842;DHT22;71284;50.918;7.092;2024-02-28T06:32:26;8.10;56.00
81842;DHT22;71284;50.918;7.092;2024-02-28T06:34:53;8.10;56.60
81842;DHT22;71284;50.918;7.092;2024-02-28T06:37:19;8.10;56.70
81842;DHT22;71284;50.918;7.092;2024-02-28T06:39:46;8.10;56.90
81842;DHT22;71284;50.918;7.092;2024-02-28T06:42:13;8.10;56.50
81842;DHT22;71284;50.918;7.092;2024-02-28T06:44:39;8.10;56.60
81842;DHT22;71284;50.918;7.092;2024-02-28T06:47:06;8.10;56.50
81842;DHT22;71284;50.918;7.092;2024-02-28T06:49:32;8.10;57.20
81842;DHT22;71284;50.918;7.092;2024-02-28T06:51:59;8.00;57.30
81842;DHT22;71284;50.918;7.092;2024-02-28T06:54:26;7.90;58.10
81842;DHT22;71284;50.918;7.092;2024-02-28T06:56:52;7.90;58.50
81842;DHT22;71284;50.918;7.092;2024-02-28T06:59:19;8.10;57.80
81842;DHT22;71284;50.918;7.092;2024-02-28T07:01:45;8.20;57.10
81842;DHT22;71284;50.918;7.092;2024-02-28T07:04:12;8.30;57.00
81842;DHT22;71284;50.918;7.092;2024-02-28T07:06:38;8.20;57.30
81842;DHT22;71284;50.918;7.092;2024-02-28T07:09:07;8.10;57.90
81842;DHT22;71284;50.918;7.092;2024-02-28T07:11:32;8.20;57.70
81842;DHT22;71284;50.918;7.092;2024-02-28T07:13:58;8.10;57.60
81842;DHT22;71284;50.918;7.092;2024-02-28T07:16:25;8.10;58.20
81842;DHT22;71284;50.918;7.092;2024-02-28T07:18:51;8.30;57.70
81842;DHT22;71284;50.918;7.092;2024-02-28T07:21:18;8.30;57.40
81842;DHT22;71284;50.918;7.092;2024-02-28T07:23:45;8.40;57.00
81842;DHT22;71284;50.918;7.092;2024-02-28T07:26:15;8.40;56.30
81842;DHT22;71284;50.918;7.092;2024-02-28T07:28:42;8.20;57.70
81842;DHT22;71284;50.918;7.092;2024-02-28T07:31:15;8.10;57.80
81842;DHT22;71284;50.918;7.092;2024-02-28T07:33:40;8.20;57.70
81842;DHT22;71284;50.918;7.092;2024-02-28T07:36:07;8.10;57.30
81842;DHT22;71284;50.918;7.092;2024-02-28T07:38:34;8.10;57.70
81842;DHT22;71284;50.918;7.092;2024-02-28T07:41:00;8.00;58.00
81842;DHT22;71284;50.918;7.092;2024-02-28T07:43:27;8.20;57.60
81842;DHT22;71284;50.918;7.092;2024-02-28T07:45:54;8.40;57.10
81842;DHT22;71284;50.918;7.092;2024-02-28T07:48:20;8.40;56.80
81842;DHT22;71284;50.918;7.092;2024-02-28T07:50:47;8.50;56.40
81842;DHT22;71284;50.918;7.092;2024-02-28T07:53:13;8.60;56.40
81842;DHT22;71284;50.918;7.092;2024-02-28T07:55:40;8.20;57.50
81842;DHT22;71284;50.918;7.092;2024-02-28T07:58:06;8.20;56.40
81842;DHT22;71284;50.918;7.092;2024-02-28T08:00:33;8.30;56.40
81842;DHT22;71284;50.918;7.092;2024-02-28T08:03:00;8.40;56.30
81842;DHT22;71284;50.918;7.092;2024-02-28T08:05:26;8.40;55.60
81842;DHT22;71284;50.918;7.092;2024-02-28T08:07:53;8.40;55.90
81842;DHT22;71284;50.918;7.092;2024-02-28T08:10:19;8.40;56.00
81842;DHT22;71284;50.918;7.092;2024-02-28T08:12:46;8.50;55.30
81842;DHT22;71284;50.918;7.092;2024-02-28T08:15:13;8.60;54.80
81842;DHT22;71284;50.918;7.092;2024-02-28T08:17:39;8.70;55.20
81842;DHT22;71284;50.918;7.092;2024-02-28T08:20:07;8.60;55.30
81842;DHT22;71284;50.918;7.092;2024-02-28T08:22:33;8.60;55.20
81842;DHT22;71284;50.918;7.092;2024-02-28T08:25:00;8.80;54.50
81842;DHT22;71284;50.918;7.092;2024-02-28T08:27:26;8.90;53.80
81842;DHT22;71284;50.918;7.092;2024-02-28T08:29:53;9.00;53.80
81842;DHT22;71284;50.918;7.092;2024-02-28T08:32:20;9.00;53.60
81842;DHT22;71284;50.918;7.092;2024-02-28T08:34:46;9.10;54.00
81842;DHT22;71284;50.918;7.092;2024-02-28T08:37:13;9.20;53.30
81842;DHT22;71284;50.918;7.092;2024-02-28T08:39:39;9.20;53.30
81842;DHT22;71284;50.918;7.092;2024-02-28T08:42:06;9.00;53.30
81842;DHT22;71284;50.918;7.092;2024-02-28T08:44:33;9.10;53.50
81842;DHT22;71284;50.918;7.092;2024-02-28T08:46:59;9.20;53.20
81842;DHT22;71284;50.918;7.092;2024-02-28T08:49:26;9.10;53.00
81842;DHT22;71284;50.918;7.092;2024-02-28T08:51:52;9.00;54.40
81842;DHT22;71284;50.918;7.092;2024-02-28T08:54:19;8.90;54.50
81842;DHT22;71284;50.918;7.092;2024-02-28T08:56:45;9.00;53.60
81842;DHT22;71284;50.918;7.092;2024-02-28T08:59:12;9.00;54.10
81842;DHT22;71284;50.918;7.092;2024-02-28T09:01:39;8.90;54.00
81842;DHT22;71284;50.918;7.092;2024-02-28T09:04:05;9.10;53.60
81842;DHT22;71284;50.918;7.092;2024-02-28T09:06:32;9.30;52.90
81842;DHT22;71284;50.918;7.092;2024-02-28T09:08:58;9.40;52.50
81842;DHT22;71284;50.918;7.092;2024-02-28T09:11:25;9.40;52.00
81842;DHT22;71284;50.918;7.092;2024-02-28T09:13:52;9.50;52.20
81842;DHT22;71284;50.918;7.092;2024-02-28T09:16:18;9.30;52.40
81842;DHT22;71284;50.918;7.092;2024-02-28T09:18:45;9.40;52.80
81842;DHT22;71284;50.918;7.092;2024-02-28T09:21:11;9.10;53.10
81842;DHT22;71284;50.918;7.092;2024-02-28T09:23:38;9.30;53.10
81842;DHT22;71284;50.918;7.092;2024-02-28T09:26:05;9.40;52.40
81842;DHT22;71284;50.918;7.092;2024-02-28T09:28:31;9.40;51.60
81842;DHT22;71284;50.918;7.092;2024-02-28T09:30:58;9.20;52.40
81842;DHT22;71284;50.918;7.092;2024-02-28T09:33:24;9.10;52.80
81842;DHT22;71284;50.918;7.092;2024-02-28T09:35:51;9.10;52.80
81842;DHT22;71284;50.918;7.092;2024-02-28T09:38:18;9.40;52.20
81842;DHT22;71284;50.918;7.092;2024-02-28T09:40:46;9.50;51.50
81842;DHT22;71284;50.918;7.092;2024-02-28T09:43:19;9.70;51.20
81842;DHT22;71284;50.918;7.092;2024-02-28T09:45:42;9.70;50.70
81842;DHT22;71284;50.918;7.092;2024-02-28T09:48:08;9.70;51.20
81842;DHT22;71284;50.918;7.092;2024-02-28T09:50:35;9.60;52.10
81842;DHT22;71284;50.918;7.092;2024-02-28T09:53:02;9.70;51.10
81842;DHT22;71284;50.918;7.092;2024-02-28T09:55:28;9.70;51.30
81842;DHT22;71284;50.918;7.092;2024-02-28T09:57:55;9.70;50.90
81842;DHT22;71284;50.918;7.092;2024-02-28T10:00:21;9.70;51.80
81842;DHT22;71284;50.918;7.092;2024-02-28T10:02:48;9.70;51.00
81842;DHT22;71284;50.918;7.092;2024-02-28T10:05:15;9.80;51.10
81842;DHT22;71284;50.918;7.092;2024-02-28T10:07:42;10.00;51.30
81842;DHT22;71284;50.918;7.092;2024-02-28T10:10:08;9.90;51.00
81842;DHT22;71284;50.918;7.092;2024-02-28T10:12:34;10.10;50.20
81842;DHT22;71284;50.918;7.092;2024-02-28T10:15:01;10.40;49.00
81842;DHT22;71284;50.918;7.092;2024-02-28T10:17:28;10.40;50.10
81842;DHT22;71284;50.918;7.092;2024-02-28T10:19:54;10.40;49.90
81842;DHT22;71284;50.918;7.092;2024-02-28T10:22:21;10.60;49.70
81842;DHT22;71284;50.918;7.092;2024-02-28T10:24:47;10.60;50.10
81842;DHT22;71284;50.918;7.092;2024-02-28T10:27:15;10.50;49.30
81842;DHT22;71284;50.918;7.092;2024-02-28T10:29:41;11.00;48.80
81842;DHT22;71284;50.918;7.092;2024-02-28T10:32:07;11.10;49.00
81842;DHT22;71284;50.918;7.092;2024-02-28T10:34:34;11.00;48.40
81842;DHT22;71284;50.918;7.092;2024-02-28T10:37:01;11.00;48.40
81842;DHT22;71284;50.918;7.092;2024-02-28T10:39:27;10.90;48.70
81842;DHT22;71284;50.918;7.092;2024-02-28T10:41:54;10.40;49.60
81842;DHT22;71284;50.918;7.092;2024-02-28T10:44:20;10.70;48.90
81842;DHT22;71284;50.918;7.092;2024-02-28T10:46:49;10.50;49.30
81842;DHT22;71284;50.918;7.092;2024-02-28T10:49:14;10.30;50.60
81842;DHT22;71284;50.918;7.092;2024-02-28T10:51:41;10.70;49.80
81842;DHT22;71284;50.918;7.092;2024-02-28T10:54:09;11.00;48.60
81842;DHT22;71284;50.918;7.092;2024-02-28T10:56:37;11.00;48.50
81842;DHT22;71284;50.918;7.092;2024-02-28T10:59:04;11.10;48.00
81842;DHT22;71284;50.918;7.092;2024-02-28T11:01:30;11.70;46.50
81842;DHT22;71284;50.918;7.092;2024-02-28T11:03:57;12.10;45.60
81842;DHT22;71284;50.918;7.092;2024-02-28T11:06:23;12.20;45.30
81842;DHT22;71284;50.918;7.092;2024-02-28T11:08:51;12.20;44.70
81842;DHT22;71284;50.918;7.092;2024-02-28T11:11:16;12.20;46.30
81842;DHT22;71284;50.918;7.092;2024-02-28T11:13:51;12.20;45.00
81842;DHT22;71284;50.918;7.092;2024-02-28T11:16:10;12.20;45.30
81842;DHT22;71284;50.918;7.092;2024-02-28T11:18:47;12.40;44.40
81842;DHT22;71284;50.918;7.092;2024-02-28T11:21:03;12.40;44.30
81842;DHT22;71284;50.918;7.092;2024-02-28T11:23:37;12.50;43.80
81842;DHT22;71284;50.918;7.092;2024-02-28T11:26:04;12.30;45.10
81842;DHT22;71284;50.918;7.092;2024-02-28T11:28:30;12.20;45.60
81842;DHT22;71284;50.918;7.092;2024-02-28T11:30:57;12.10;45.10
81842;DHT22;71284;50.918;7.092;2024-02-28T11:33:23;12.10;46.40
81842;DHT22;71284;50.918;7.092;2024-02-28T11:35:56;12.90;44.00
81842;DHT22;71284;50.918;7.092;2024-02-28T11:38:23;13.60;42.40
81842;DHT22;71284;50.918;7.092;2024-02-28T11:40:49;14.20;40.60
81842;DHT22;71284;50.918;7.092;2024-02-28T11:43:15;14.40;40.00
81842;DHT22;71284;50.918;7.092;2024-02-28T11:45:42;15.00;38.50
81842;DHT22;71284;50.918;7.092;2024-02-28T11:48:09;15.30;37.60
81842;DHT22;71284;50.918;7.092;2024-02-28T11:50:37;15.30;38.70
81842;DHT22;71284;50.918;7.092;2024-02-28T11:53:02;15.00;38.50
81842;DHT22;71284;50.918;7.092;2024-02-28T11:55:28;14.80;38.70
81842;DHT22;71284;50.918;7.092;2024-02-28T11:57:55;14.80;38.60
81842;DHT22;71284;50.918;7.092;2024-02-28T12:00:21;15.00;38.90
81842;DHT22;71284;50.918;7.092;2024-02-28T12:02:48;15.00;38.70
81842;DHT22;71284;50.918;7.092;2024-02-28T12:05:15;15.20;37.90
81842;DHT22;71284;50.918;7.092;2024-02-28T12:07:41;15.30;38.10
81842;DHT22;71284;50.918;7.092;2024-02-28T12:10:08;15.70;36.90
81842;DHT22;71284;50.918;7.092;2024-02-28T12:12:35;16.10;36.20
81842;DHT22;71284;50.918;7.092;2024-02-28T12:15:01;15.80;35.40
81842;DHT22;71284;50.918;7.092;2024-02-28T12:17:31;15.70;36.50
81842;DHT22;71284;50.918;7.092;2024-02-28T12:19:59;16.40;35.80
81842;DHT22;71284;50.918;7.092;2024-02-28T12:22:25;16.50;35.10
81842;DHT22;71284;50.918;7.092;2024-02-28T12:24:52;16.20;36.00
81842;DHT22;71284;50.918;7.092;2024-02-28T12:27:18;16.10;35.40
81842;DHT22;71284;50.918;7.092;2024-02-28T12:29:45;15.70;35.40
81842;DHT22;71284;50.918;7.092;2024-02-28T12:32:12;16.30;35.20
81842;DHT22;71284;50.918;7.092;2024-02-28T12:34:38;16.30;35.70
81842;DHT22;71284;50.918;7.092;2024-02-28T12:37:05;16.50;34.90
81842;DHT22;71284;50.918;7.092;2024-02-28T12:39:31;16.60;34.20
81842;DHT22;71284;50.918;7.092;2024-02-28T12:41:58;15.90;35.00
81842;DHT22;71284;50.918;7.092;2024-02-28T12:44:24;15.80;35.60
81842;DHT22;71284;50.918;7.092;2024-02-28T12:46:51;15.90;35.00
81842;DHT22;71284;50.918;7.092;2024-02-28T12:49:18;16.40;34.90
81842;DHT22;71284;50.918;7.092;2024-02-28T12:51:45;17.20;32.00
81842;DHT22;71284;50.918;7.092;2024-02-28T12:54:11;17.80;29.20
81842;DHT22;71284;50.918;7.092;2024-02-28T12:56:38;18.00;28.30
81842;DHT22;71284;50.918;7.092;2024-02-28T12:59:04;18.10;30.10
81842;DHT22;71284;50.918;7.092;2024-02-28T13:01:31;18.10;31.10
81842;DHT22;71284;50.918;7.092;2024-02-28T13:03:57;18.30;31.50
81842;DHT22;71284;50.918;7.092;2024-02-28T13:06:24;18.10;32.20
81842;DHT22;71284;50.918;7.092;2024-02-28T13:08:50;18.50;30.60
81842;DHT22;71284;50.918;7.092;2024-02-28T13:11:19;18.50;28.40
81842;DHT22;71284;50.918;7.092;2024-02-28T13:13:47;18.60;28.00
81842;DHT22;71284;50.918;7.092;2024-02-28T13:16:13;18.10;29.60
81842;DHT22;71284;50.918;7.092;2024-02-28T13:18:40;17.90;28.60
81842;DHT22;71284;50.918;7.092;2024-02-28T13:21:07;18.00;31.50
81842;DHT22;71284;50.918;7.092;2024-02-28T13:23:33;17.60;30.30
81842;DHT22;71284;50.918;7.092;2024-02-28T13:26:01;17.50;30.00
81842;DHT22;71284;50.918;7.092;2024-02-28T13:28:27;17.60;29.70
81842;DHT22;71284;50.918;7.092;2024-02-28T13:30:59;17.80;29.40
81842;DHT22;71284;50.918;7.092;2024-02-28T13:33:26;18.10;28.80
81842;DHT22;71284;50.918;7.092;2024-02-28T13:35:53;18.60;29.00
81842;DHT22;71284;50.918;7.092;2024-02-28T13:38:19;18.50;29.60
81842;DHT22;71284;50.918;7.092;2024-02-28T13:40:47;19.00;28.40
81842;DHT22;71284;50.918;7.092;2024-02-28T13:43:13;18.80;29.30
81842;DHT22;71284;50.918;7.092;2024-02-28T13:45:39;18.60;26.20
81842;DHT22;71284;50.918;7.092;2024-02-28T13:50:39;18.40;27.90
81842;DHT22;71284;50.918;7.092;2024-02-28T13:53:06;17.70;28.80
81842;DHT22;71284;50.918;7.092;2024-02-28T13:55:33;17.00;29.90
81842;DHT22;71284;50.918;7.092;2024-02-28T13:57:59;17.10;29.90
81842;DHT22;71284;50.918;7.092;2024-02-28T14:00:26;17.00;29.70
81842;DHT22;71284;50.918;7.092;2024-02-28T14:02:52;17.20;30.60
81842;DHT22;71284;50.918;7.092;2024-02-28T14:05:19;16.80;31.30
81842;DHT22;71284;50.918;7.092;2024-02-28T14:07:46;16.20;33.30
81842;DHT22;71284;50.918;7.092;2024-02-28T14:10:12;15.50;33.90
81842;DHT22;71284;50.918;7.092;2024-02-28T14:12:39;15.00;34.30
81842;DHT22;71284;50.918;7.092;2024-02-28T14:15:06;15.20;34.50
81842;DHT22;71284;50.918;7.092;2024-02-28T14:17:32;15.30;34.60
81842;DHT22;71284;50.918;7.092;2024-02-28T14:19:59;15.10;35.10
81842;DHT22;71284;50.918;7.092;2024-02-28T14:22:25;15.20;35.10
81842;DHT22;71284;50.918;7.092;2024-02-28T14:24:52;14.90;35.80
81842;DHT22;71284;50.918;7.092;2024-02-28T14:27:19;14.60;36.10
81842;DHT22;71284;50.918;7.092;2024-02-28T14:29:45;14.50;36.20
81842;DHT22;71284;50.918;7.092;2024-02-28T14:32:14;14.80;36.00
81842;DHT22;71284;50.918;7.092;2024-02-28T14:34:38;15.10;35.00
81842;DHT22;71284;50.918;7.092;2024-02-28T14:37:05;15.00;36.10
81842;DHT22;71284;50.918;7.092;2024-02-28T14:39:32;14.60;36.40
81842;DHT22;71284;50.918;7.092;2024-02-28T14:41:58;14.80;36.90
81842;DHT22;71284;50.918;7.092;2024-02-28T14:44:25;15.00;36.00
81842;DHT22;71284;50.918;7.092;2024-02-28T14:46:52;14.50;37.00
81842;DHT22;71284;50.918;7.092;2024-02-28T14:49:18;14.60;36.50
81842;DHT22;71284;50.918;7.092;2024-02-28T14:51:45;14.90;37.50
81842;DHT22;71284;50.918;7.092;2024-02-28T14:54:12;14.90;36.40
81842;DHT22;71284;50.918;7.092;2024-02-28T14:56:39;14.50;37.80
81842;DHT22;71284;50.918;7.092;2024-02-28T14:59:05;14.50;37.70
81842;DHT22;71284;50.918;7.092;2024-02-28T15:01:32;14.40;37.70
81842;DHT22;71284;50.918;7.092;2024-02-28T15:03:58;14.40;37.70
81842;DHT22;71284;50.918;7.092;2024-02-28T15:06:25;14.50;37.60
81842;DHT22;71284;50.918;7.092;2024-02-28T15:08:52;14.20;37.40
81842;DHT22;71284;50.918;7.092;2024-02-28T15:11:18;14.20;37.10
81842;DHT22;71284;50.918;7.092;2024-02-28T15:13:45;14.10;36.80
81842;DHT22;71284;50.918;7.092;2024-02-28T15:16:12;14.20;36.40
81842;DHT22;71284;50.918;7.092;2024-02-28T15:18:38;14.30;37.40
81842;DHT22;71284;50.918;7.092;2024-02-28T15:21:06;14.10;37.50
81842;DHT22;71284;50.918;7.092;2024-02-28T15:23:31;14.10;37.90
81842;DHT22;71284;50.918;7.092;2024-02-28T15:25:58;14.00;38.50
81842;DHT22;71284;50.918;7.092;2024-02-28T15:28:24;14.00;38.20
81842;DHT22;71284;50.918;7.092;2024-02-28T15:30:51;14.20;37.90
81842;DHT22;71284;50.918;7.092;2024-02-28T15:33:18;14.20;37.00
81842;DHT22;71284;50.918;7.092;2024-02-28T15:35:44;14.20;37.60
81842;DHT22;71284;50.918;7.092;2024-02-28T15:38:11;14.10;37.70